createdAt,value
2023-01-20T00:01:25.179Z,94.28
2023-01-20T00:03:54.477Z,94.30
2023-01-20T00:06:23.190Z,94.37
2023-01-20T00:08:52.080Z,94.12
2023-01-20T00:11:20.431Z,94.03
2023-01-20T00:13:48.191Z,94.51
2023-01-20T00:16:15.784Z,94.40
2023-01-20T00:18:43.695Z,94.75
2023-01-20T00:21:13.369Z,94.47
2023-01-20T00:23:41.278Z,94.84
2023-01-20T00:26:11.574Z,94.63
2023-01-20T00:28:39.168Z,95.25
2023-01-20T00:31:17.314Z,94.79
2023-01-20T00:33:46.024Z,94.90
2023-01-20T00:36:15.188Z,94.21
2023-01-20T00:38:43.098Z,94.37
2023-01-20T00:41:10.904Z,94.91
2023-01-20T00:43:39.025Z,94.75
2023-01-20T00:46:06.963Z,94.94
2023-01-20T00:48:35.184Z,94.88
2023-01-20T00:51:03.312Z,95.23
2023-01-20T00:53:30.997Z,95.20
2023-01-20T00:55:58.891Z,95.84
2023-01-20T00:58:27.224Z,95.68
2023-01-20T01:00:56.311Z,96.31
2023-01-20T01:03:24.674Z,96.15
2023-01-20T01:05:52.388Z,96.20
2023-01-20T01:08:20.310Z,96.59
2023-01-20T01:10:48.697Z,96.77
2023-01-20T01:13:16.271Z,96.65
2023-01-20T01:15:49.816Z,96.56
2023-01-20T01:18:17.729Z,96.11
2023-01-20T01:20:45.227Z,95.88
2023-01-20T01:23:13.266Z,95.48
2023-01-20T01:25:41.108Z,96.06
2023-01-20T01:28:08.716Z,96.02
2023-01-20T01:30:36.261Z,96.78
2023-01-20T01:33:04.192Z,96.69
2023-01-20T01:35:31.716Z,96.86
2023-01-20T01:37:59.300Z,96.62
2023-01-20T01:40:27.048Z,96.56
2023-01-20T01:42:54.648Z,96.70
2023-01-20T01:45:30.519Z,96.53
2023-01-20T01:48:00.535Z,96.58
2023-01-20T01:50:43.203Z,96.43
2023-01-20T01:53:11.199Z,96.32
2023-01-20T01:55:42.367Z,96.44
2023-01-20T01:58:12.591Z,96.11
2023-01-20T02:00:40.610Z,95.96
2023-01-20T02:03:08.720Z,96.41
2023-01-20T02:05:37.350Z,95.92
2023-01-20T02:08:05.738Z,95.75
2023-01-20T02:10:33.282Z,95.35
2023-01-20T02:13:01.639Z,95.40
2023-01-20T02:15:38.963Z,94.74
2023-01-20T02:18:32.514Z,94.76
2023-01-20T02:21:18.349Z,94.65
2023-01-20T02:24:17.956Z,94.92
2023-01-20T02:27:19.843Z,94.96
2023-01-20T02:30:18.605Z,95.24
2023-01-20T02:33:04.304Z,95.15
2023-01-20T02:35:39.880Z,95.58
2023-01-20T02:38:17.445Z,95.36
2023-01-20T02:40:45.132Z,95.56
2023-01-20T02:43:25.829Z,95.30
2023-01-20T02:46:05.687Z,95.34
2023-01-20T02:48:44.204Z,95.50
2023-01-20T02:51:16.420Z,95.52
2023-01-20T02:53:48.682Z,96.07
2023-01-20T02:56:17.497Z,96.08
2023-01-20T02:58:51.281Z,95.95
2023-01-20T03:01:29.920Z,96.21
2023-01-20T03:03:59.983Z,96.17
2023-01-20T03:06:31.523Z,95.69
2023-01-20T03:09:00.946Z,95.77
2023-01-20T03:11:29.423Z,95.59
2023-01-20T03:14:05.431Z,95.61
2023-01-20T03:16:33.405Z,95.75
2023-01-20T03:19:01.109Z,95.43
2023-01-20T03:21:28.939Z,95.35
2023-01-20T03:24:01.063Z,95.32
2023-01-20T03:26:28.648Z,95.68
2023-01-20T03:28:56.469Z,96.04
2023-01-20T03:31:26.724Z,95.66
2023-01-20T03:33:56.580Z,95.33
2023-01-20T03:36:26.561Z,95.24
2023-01-20T03:38:54.931Z,95.13
2023-01-20T03:41:48.318Z,95.54
2023-01-20T03:44:38.996Z,95.40
2023-01-20T03:47:25.069Z,95.23
2023-01-20T03:49:56.044Z,95.54
2023-01-20T03:52:47.719Z,95.54
2023-01-20T03:55:34.912Z,95.46
2023-01-20T03:58:09.776Z,95.18
2023-01-20T04:00:49.397Z,95.34
2023-01-20T04:03:23.051Z,95.52
2023-01-20T04:05:51.212Z,95.58
2023-01-20T04:08:21.298Z,96.01
2023-01-20T04:10:49.482Z,95.87
2023-01-20T04:13:17.145Z,96.50
2023-01-20T04:15:45.917Z,96.01
2023-01-20T04:18:18.625Z,96.08
2023-01-20T04:20:48.567Z,96.33
2023-01-20T04:23:24.584Z,96.72
2023-01-20T04:25:52.377Z,97.07
2023-01-20T04:28:19.988Z,96.75
2023-01-20T04:30:48.473Z,96.99
2023-01-20T04:33:16.330Z,96.86
2023-01-20T04:35:43.835Z,97.05
2023-01-20T04:38:11.493Z,97.49
2023-01-20T04:40:39.319Z,97.75
2023-01-20T04:43:07.036Z,97.47
2023-01-20T04:45:34.645Z,97.93
2023-01-20T04:48:06.192Z,97.45
2023-01-20T04:50:37.816Z,97.22
2023-01-20T04:53:05.567Z,96.80
2023-01-20T04:55:33.956Z,97.10
2023-01-20T04:58:01.555Z,97.28
2023-01-20T05:00:29.586Z,97.59
2023-01-20T05:02:58.385Z,97.80
2023-01-20T05:05:25.976Z,97.62
2023-01-20T05:07:54.420Z,97.75
2023-01-20T05:10:21.975Z,97.55
2023-01-20T05:12:49.511Z,97.25
2023-01-20T05:15:17.500Z,97.48
2023-01-20T05:17:45.171Z,97.29
2023-01-20T05:20:14.558Z,97.26
2023-01-20T05:22:42.307Z,97.58
2023-01-20T05:25:09.784Z,97.79
2023-01-20T05:27:37.739Z,98.14
2023-01-20T05:30:07.050Z,98.11
2023-01-20T05:32:34.692Z,98.31
2023-01-20T05:35:02.274Z,98.14
2023-01-20T05:37:30.174Z,98.36
2023-01-20T05:39:57.851Z,98.77
2023-01-20T05:42:25.519Z,99.08
2023-01-20T05:44:56.999Z,99.23
2023-01-20T05:47:24.627Z,99.15
2023-01-20T05:49:52.214Z,99.34
2023-01-20T05:52:20.084Z,99.35
2023-01-20T05:54:47.612Z,99.41
2023-01-20T05:57:18.284Z,99.40
2023-01-20T05:59:47.841Z,99.41
2023-01-20T06:02:18.822Z,99.41
2023-01-20T06:04:47.115Z,100.00
2023-01-20T06:07:15.319Z,99.13
2023-01-20T06:09:43.537Z,99.28
2023-01-20T06:12:11.325Z,99.93
2023-01-20T06:14:38.807Z,99.73
2023-01-20T06:17:06.433Z,100.00
2023-01-20T06:19:34.352Z,100.00
2023-01-20T06:22:01.930Z,100.00
2023-01-20T06:24:29.449Z,100.00
2023-01-20T06:26:57.249Z,100.00
2023-01-20T06:29:24.881Z,100.00
2023-01-20T06:31:52.563Z,100.00
2023-01-20T06:34:20.372Z,100.00
2023-01-20T06:36:48.012Z,100.00
2023-01-20T06:39:15.923Z,100.00
2023-01-20T06:41:43.988Z,100.00
2023-01-20T06:44:11.589Z,100.00
2023-01-20T06:46:39.181Z,100.00
2023-01-20T06:49:07.443Z,100.00
2023-01-20T06:51:34.983Z,100.00
2023-01-20T06:54:02.595Z,100.00
2023-01-20T06:56:30.512Z,100.00
2023-01-20T06:58:58.305Z,100.00
2023-01-20T07:01:28.359Z,100.00
2023-01-20T07:03:56.536Z,100.00
2023-01-20T07:06:34.983Z,100.00
2023-01-20T07:09:03.198Z,100.00
2023-01-20T07:11:31.578Z,100.00
2023-01-20T07:13:59.201Z,100.00
2023-01-20T07:16:27.115Z,100.00
2023-01-20T07:18:54.901Z,100.00
2023-01-20T07:21:26.025Z,100.00
2023-01-20T07:23:54.861Z,100.00
2023-01-20T07:26:24.286Z,100.00
2023-01-20T07:28:52.506Z,100.00
2023-01-20T07:31:24.880Z,100.00
2023-01-20T07:33:54.109Z,100.00
2023-01-20T07:36:21.911Z,100.00
2023-01-20T07:38:50.672Z,100.00
2023-01-20T07:41:19.982Z,100.00
2023-01-20T07:43:49.696Z,100.00
2023-01-20T07:46:18.432Z,100.00
2023-01-20T07:48:46.570Z,100.00
2023-01-20T07:51:16.231Z,100.00
2023-01-20T07:53:47.237Z,100.00
2023-01-20T07:56:17.790Z,100.00
2023-01-20T07:58:45.511Z,100.00
2023-01-20T08:01:19.094Z,100.00
2023-01-20T08:03:52.601Z,100.00
2023-01-20T08:06:22.599Z,100.00
2023-01-20T08:08:51.078Z,100.00
2023-01-20T08:11:20.463Z,100.00
2023-01-20T08:13:48.395Z,100.00
2023-01-20T08:16:18.052Z,100.00
2023-01-20T08:18:46.379Z,100.00
2023-01-20T08:21:20.669Z,100.00
2023-01-20T08:23:52.267Z,100.00
2023-01-20T08:26:20.995Z,100.00
2023-01-20T08:28:49.213Z,100.00
2023-01-20T08:31:19.607Z,100.00
2023-01-20T08:33:47.906Z,100.00
2023-01-20T08:36:22.485Z,100.00
2023-01-20T08:38:50.636Z,100.00
2023-01-20T08:41:24.001Z,100.00
2023-01-20T08:43:51.712Z,100.00
2023-01-20T08:46:20.830Z,100.00
2023-01-20T08:48:49.809Z,100.00
2023-01-20T08:51:20.635Z,100.00
2023-01-20T08:53:49.697Z,100.00
2023-01-20T08:56:18.856Z,100.00
2023-01-20T08:58:51.728Z,100.00
2023-01-20T09:01:28.178Z,100.00
2023-01-20T09:04:06.495Z,100.00
2023-01-20T09:06:43.995Z,100.00
2023-01-20T09:09:13.092Z,100.00
2023-01-20T09:11:41.265Z,100.00
2023-01-20T09:14:08.976Z,100.00
2023-01-20T09:16:36.628Z,100.00
2023-01-20T09:19:04.642Z,100.00
2023-01-20T09:21:32.427Z,100.00
2023-01-20T09:24:00.469Z,100.00
2023-01-20T09:26:35.675Z,100.00
2023-01-20T09:29:09.517Z,100.00
2023-01-20T09:31:40.132Z,100.00
2023-01-20T09:34:07.943Z,100.00
2023-01-20T09:36:35.478Z,100.00
2023-01-20T09:39:22.880Z,100.00
2023-01-20T09:42:11.170Z,100.00
2023-01-20T09:44:48.316Z,100.00
2023-01-20T09:47:32.569Z,100.00
2023-01-20T09:50:24.913Z,100.00
2023-01-20T09:53:06.558Z,100.00
2023-01-20T09:55:53.426Z,100.00
2023-01-20T09:58:38.742Z,100.00
2023-01-20T10:01:13.677Z,100.00
2023-01-20T10:03:58.695Z,100.00
2023-01-20T10:06:28.642Z,100.00
2023-01-20T10:09:32.702Z,100.00
2023-01-20T10:12:09.830Z,100.00
2023-01-20T10:14:42.191Z,100.00
2023-01-20T10:17:31.570Z,100.00
2023-01-20T10:20:21.939Z,100.00
2023-01-20T10:22:56.057Z,100.00
2023-01-20T10:25:28.594Z,100.00
2023-01-20T10:27:59.206Z,100.00
2023-01-20T10:30:31.640Z,100.00
2023-01-20T10:33:08.702Z,100.00
2023-01-20T10:35:43.453Z,100.00
2023-01-20T10:38:43.508Z,100.00
2023-01-20T10:41:17.131Z,100.00
2023-01-20T10:43:46.682Z,100.00
2023-01-20T10:46:29.708Z,100.00
2023-01-20T10:49:21.175Z,100.00
2023-01-20T10:52:07.867Z,100.00
2023-01-20T10:54:54.282Z,100.00
2023-01-20T10:57:22.462Z,100.00
2023-01-20T10:59:56.139Z,100.00
2023-01-20T11:02:38.307Z,100.00
2023-01-20T11:05:33.554Z,100.00
2023-01-20T11:08:15.864Z,100.00
2023-01-20T11:10:43.891Z,100.00
2023-01-20T11:13:12.199Z,100.00
2023-01-20T11:15:52.206Z,100.00
2023-01-20T11:18:29.256Z,100.00
2023-01-20T11:21:03.213Z,100.00
2023-01-20T11:23:55.865Z,100.00
2023-01-20T11:26:34.763Z,100.00
2023-01-20T11:29:24.125Z,100.00
2023-01-20T11:31:53.587Z,100.00
2023-01-20T11:34:25.432Z,100.00
2023-01-20T11:37:05.304Z,100.00
2023-01-20T11:40:10.432Z,100.00
2023-01-20T11:42:45.105Z,100.00
2023-01-20T11:45:28.430Z,100.00
2023-01-20T11:48:16.557Z,100.00
2023-01-20T11:50:50.480Z,100.00
2023-01-20T11:53:24.811Z,100.00
2023-01-20T11:55:57.341Z,100.00
2023-01-20T11:58:28.090Z,100.00
2023-01-20T12:01:04.779Z,100.00
2023-01-20T12:03:51.417Z,100.00
2023-01-20T12:06:29.101Z,100.00
2023-01-20T12:09:20.451Z,100.00
2023-01-20T12:12:05.837Z,100.00
2023-01-20T12:14:50.047Z,100.00
2023-01-20T12:17:37.971Z,100.00
2023-01-20T12:20:09.530Z,100.00
2023-01-20T12:23:21.183Z,100.00
2023-01-20T12:25:56.203Z,100.00
2023-01-20T12:28:39.091Z,100.00
2023-01-20T12:31:11.546Z,100.00
2023-01-20T12:33:43.549Z,100.00
2023-01-20T12:36:50.115Z,100.00
2023-01-20T12:39:35.885Z,100.00
2023-01-20T12:42:21.744Z,100.00
2023-01-20T12:44:58.526Z,100.00
2023-01-20T12:48:00.423Z,100.00
2023-01-20T12:50:46.674Z,100.00
2023-01-20T12:53:56.351Z,100.00
2023-01-20T12:56:47.865Z,100.00
2023-01-20T12:59:32.152Z,100.00
2023-01-20T13:02:08.645Z,100.00
2023-01-20T13:04:48.437Z,100.00
2023-01-20T13:11:20.125Z,100.00
2023-01-20T13:14:16.576Z,100.00
2023-01-20T13:17:23.209Z,100.00
2023-01-20T13:19:52.041Z,100.00
2023-01-20T13:22:22.444Z,100.00
2023-01-20T13:24:54.617Z,100.00
2023-01-20T13:27:28.392Z,100.00
2023-01-20T13:29:57.938Z,100.00
2023-01-20T13:32:32.418Z,100.00
2023-01-20T13:35:02.458Z,100.00
2023-01-20T13:37:37.371Z,100.00
2023-01-20T13:40:38.266Z,100.00
2023-01-20T13:43:30.047Z,100.00
2023-01-20T13:46:03.780Z,100.00
2023-01-20T13:48:33.415Z,100.00
2023-01-20T13:51:27.065Z,100.00
2023-01-20T13:54:34.441Z,100.00
2023-01-20T13:57:20.490Z,100.00
2023-01-20T13:59:49.093Z,100.00
2023-01-20T14:02:21.965Z,100.00
2023-01-20T14:04:49.994Z,100.00
2023-01-20T14:07:24.791Z,100.00
2023-01-20T14:09:57.153Z,100.00
2023-01-20T14:12:25.179Z,100.00
2023-01-20T14:14:53.610Z,100.00
2023-01-20T14:17:23.525Z,100.00
2023-01-20T14:19:56.405Z,100.00
2023-01-20T14:22:27.035Z,100.00
2023-01-20T14:24:57.402Z,100.00
2023-01-20T14:27:32.314Z,100.00
2023-01-20T14:30:15.856Z,100.00
2023-01-20T14:32:44.014Z,100.00
2023-01-20T14:35:32.492Z,100.00
2023-01-20T14:38:00.715Z,100.00
2023-01-20T14:40:34.278Z,100.00
2023-01-20T14:43:17.134Z,100.00
2023-01-20T14:45:49.322Z,100.00
2023-01-20T14:48:32.946Z,100.00
2023-01-20T14:51:04.222Z,100.00
2023-01-20T14:53:32.272Z,100.00
2023-01-20T14:56:01.418Z,100.00
2023-01-20T14:58:30.653Z,100.00
2023-01-20T15:01:02.163Z,100.00
2023-01-20T15:03:30.708Z,100.00
2023-01-20T15:06:06.873Z,100.00
2023-01-20T15:08:34.367Z,100.00
2023-01-20T15:11:14.199Z,100.00
2023-01-20T15:13:43.206Z,100.00
2023-01-20T15:16:14.218Z,100.00
2023-01-20T15:18:41.790Z,100.00
2023-01-20T15:21:27.169Z,100.00
2023-01-20T15:23:55.070Z,100.00
2023-01-20T15:26:30.150Z,100.00
2023-01-20T15:28:58.434Z,100.00
2023-01-20T15:31:26.673Z,100.00
2023-01-20T15:33:54.318Z,100.00
2023-01-20T15:36:30.134Z,100.00
2023-01-20T15:38:57.724Z,100.00
2023-01-20T15:41:25.647Z,100.00
2023-01-20T15:43:53.178Z,100.00
2023-01-20T15:46:20.739Z,100.00
2023-01-20T15:48:48.905Z,100.00
2023-01-20T15:51:19.004Z,100.00
2023-01-20T15:53:47.333Z,100.00
2023-01-20T15:56:26.858Z,100.00
2023-01-20T15:58:54.904Z,100.00
2023-01-20T16:01:25.185Z,100.00
2023-01-20T16:03:55.262Z,100.00
2023-01-20T16:06:33.603Z,100.00
2023-01-20T16:09:03.568Z,100.00
2023-01-20T16:11:31.179Z,100.00
2023-01-20T16:13:58.698Z,100.00
2023-01-20T16:16:29.814Z,100.00
2023-01-20T16:18:57.414Z,100.00
2023-01-20T16:21:25.032Z,100.00
2023-01-20T16:23:53.083Z,100.00
2023-01-20T16:26:22.964Z,100.00
2023-01-20T16:28:51.766Z,100.00
2023-01-20T16:31:20.148Z,100.00
2023-01-20T16:33:47.880Z,100.00
2023-01-20T16:36:20.187Z,100.00
2023-01-20T16:38:48.944Z,100.00
2023-01-20T16:41:27.763Z,100.00
2023-01-20T16:43:55.781Z,100.00
2023-01-20T16:46:25.444Z,100.00
2023-01-20T16:48:59.672Z,100.00
2023-01-20T16:51:29.095Z,100.00
2023-01-20T16:53:57.304Z,100.00
2023-01-20T16:56:27.903Z,100.00
2023-01-20T16:59:01.464Z,100.00
2023-01-20T17:01:30.110Z,100.00
2023-01-20T17:04:00.538Z,100.00
2023-01-20T17:06:33.948Z,100.00
2023-01-20T17:09:04.437Z,100.00
2023-01-20T17:11:34.428Z,100.00
2023-01-20T17:14:05.006Z,100.00
2023-01-20T17:16:32.952Z,100.00
2023-01-20T17:19:01.142Z,100.00
2023-01-20T17:21:31.011Z,100.00
2023-01-20T17:24:01.306Z,100.00
2023-01-20T17:26:29.803Z,100.00
2023-01-20T17:28:59.911Z,100.00
2023-01-20T17:31:28.364Z,100.00
2023-01-20T17:33:56.278Z,100.00
2023-01-20T17:36:24.183Z,100.00
2023-01-20T17:38:51.678Z,100.00
2023-01-20T17:41:20.130Z,100.00
2023-01-20T17:43:47.787Z,100.00
2023-01-20T17:46:19.152Z,100.00
2023-01-20T17:48:47.751Z,100.00
2023-01-20T17:51:18.172Z,100.00
2023-01-20T17:53:46.555Z,100.00
2023-01-20T17:56:15.543Z,100.00
2023-01-20T17:58:45.154Z,100.00
2023-01-20T18:01:23.012Z,100.00
2023-01-20T18:03:53.489Z,100.00
2023-01-20T18:06:23.653Z,100.00
2023-01-20T18:08:57.531Z,100.00
2023-01-20T18:11:27.166Z,100.00
2023-01-20T18:13:56.823Z,100.00
2023-01-20T18:16:31.132Z,100.00
2023-01-20T18:18:59.205Z,100.00
2023-01-20T18:21:29.898Z,100.00
2023-01-20T18:23:58.569Z,100.00
2023-01-20T18:26:31.711Z,100.00
2023-01-20T18:29:06.234Z,100.00
2023-01-20T18:31:34.821Z,100.00
2023-01-20T18:34:06.392Z,100.00
2023-01-20T18:36:37.762Z,100.00
2023-01-20T18:39:07.798Z,100.00
2023-01-20T18:41:37.669Z,100.00
2023-01-20T18:44:06.153Z,100.00
2023-01-20T18:46:34.212Z,100.00
2023-01-20T18:49:02.739Z,100.00
2023-01-20T18:51:30.750Z,100.00
2023-01-20T18:54:07.715Z,100.00
2023-01-20T18:56:36.158Z,100.00
2023-01-20T18:59:05.793Z,100.00
2023-01-20T19:01:36.744Z,100.00
2023-01-20T19:04:06.117Z,100.00
2023-01-20T19:06:39.196Z,100.00
2023-01-20T19:09:07.517Z,100.00
2023-01-20T19:11:39.620Z,100.00
2023-01-20T19:14:11.700Z,100.00
2023-01-20T19:16:42.377Z,100.00
2023-01-20T19:19:11.140Z,100.00
2023-01-20T19:21:39.445Z,100.00
2023-01-20T19:24:08.135Z,100.00
2023-01-20T19:26:37.554Z,100.00
2023-01-20T19:29:07.544Z,100.00
2023-01-20T19:31:37.369Z,100.00
2023-01-20T19:34:07.061Z,100.00
2023-01-20T19:36:34.839Z,100.00
2023-01-20T19:39:04.732Z,100.00
2023-01-20T19:41:34.476Z,100.00
2023-01-20T19:44:04.562Z,100.00
2023-01-20T19:46:35.036Z,100.00
2023-01-20T19:49:02.815Z,100.00
2023-01-20T19:51:32.077Z,100.00
2023-01-20T19:54:01.628Z,100.00
2023-01-20T19:56:32.291Z,100.00
2023-01-20T19:59:01.103Z,100.00
2023-01-20T20:01:31.765Z,100.00
2023-01-20T20:04:08.026Z,100.00
2023-01-20T20:06:38.992Z,100.00
2023-01-20T20:09:10.868Z,100.00
2023-01-20T20:11:38.866Z,100.00
2023-01-20T20:14:08.564Z,100.00
2023-01-20T20:16:37.248Z,100.00
2023-01-20T20:19:06.506Z,100.00
2023-01-20T20:21:37.346Z,100.00
2023-01-20T20:24:05.833Z,100.00
2023-01-20T20:26:36.294Z,100.00
2023-01-20T20:29:06.645Z,100.00
2023-01-20T20:31:36.163Z,100.00
2023-01-20T20:34:06.419Z,100.00
2023-01-20T20:36:35.393Z,100.00
2023-01-20T20:39:04.969Z,100.00
2023-01-20T20:41:35.297Z,100.00
2023-01-20T20:44:04.361Z,100.00
2023-01-20T20:46:33.376Z,100.00
2023-01-20T20:49:02.063Z,100.00
2023-01-20T20:51:32.472Z,100.00
2023-01-20T20:54:02.268Z,100.00
2023-01-20T20:56:31.881Z,100.00
2023-01-20T20:59:03.047Z,100.00
2023-01-20T21:01:33.738Z,100.00
2023-01-20T21:04:03.110Z,100.00
2023-01-20T21:06:31.974Z,100.00
2023-01-20T21:08:59.996Z,100.00
2023-01-20T21:11:28.213Z,100.00
2023-01-20T21:13:56.437Z,100.00
2023-01-20T21:16:24.750Z,100.00
2023-01-20T21:18:56.238Z,100.00
2023-01-20T21:21:25.451Z,100.00
2023-01-20T21:23:56.033Z,100.00
2023-01-20T21:26:25.116Z,100.00
2023-01-20T21:28:54.035Z,100.00
2023-01-20T21:31:23.652Z,100.00
2023-01-20T21:33:53.985Z,100.00
2023-01-20T21:36:22.303Z,100.00
2023-01-20T21:38:50.636Z,100.00
2023-01-20T21:41:18.823Z,100.00
2023-01-20T21:44:06.068Z,100.00
2023-01-20T21:46:38.717Z,100.00
2023-01-20T21:49:28.552Z,100.00
2023-01-20T21:52:15.555Z,100.00
2023-01-20T21:54:45.144Z,100.00
2023-01-20T21:57:14.296Z,100.00
2023-01-20T21:59:42.034Z,100.00
2023-01-20T22:02:11.530Z,100.00
2023-01-20T22:04:40.048Z,100.00
2023-01-20T22:07:07.548Z,100.00
2023-01-20T22:09:35.265Z,100.00
2023-01-20T22:12:03.284Z,100.00
2023-01-20T22:14:32.354Z,100.00
2023-01-20T22:16:59.815Z,100.00
2023-01-20T22:19:27.785Z,100.00
2023-01-20T22:21:56.850Z,100.00
2023-01-20T22:24:24.368Z,100.00
2023-01-20T22:26:52.196Z,100.00
2023-01-20T22:29:19.969Z,100.00
2023-01-20T22:31:50.969Z,100.00
2023-01-20T22:34:19.338Z,100.00
2023-01-20T22:36:46.967Z,100.00
2023-01-20T22:39:15.307Z,100.00
2023-01-20T22:41:43.346Z,100.00
2023-01-20T22:44:10.912Z,100.00
2023-01-20T22:46:38.546Z,100.00
2023-01-20T22:49:06.419Z,100.00
2023-01-20T22:51:34.056Z,100.00
2023-01-20T22:54:01.833Z,100.00
2023-01-20T22:56:31.691Z,100.00
2023-01-20T22:59:00.164Z,100.00
2023-01-20T23:01:30.376Z,100.00
2023-01-20T23:04:00.592Z,100.00
2023-01-20T23:06:30.685Z,100.00
2023-01-20T23:08:59.503Z,100.00
2023-01-20T23:11:27.053Z,100.00
2023-01-20T23:13:54.661Z,100.00
2023-01-20T23:16:23.301Z,100.00
2023-01-20T23:18:52.019Z,100.00
2023-01-20T23:21:20.585Z,100.00
2023-01-20T23:23:54.893Z,100.00
2023-01-20T23:26:25.967Z,100.00
2023-01-20T23:28:54.127Z,100.00
2023-01-20T23:31:23.579Z,100.00
2023-01-20T23:33:53.512Z,100.00
2023-01-20T23:36:25.328Z,100.00
2023-01-20T23:38:54.453Z,100.00
2023-01-20T23:41:23.623Z,100.00
2023-01-20T23:43:51.283Z,100.00
2023-01-20T23:46:19.134Z,100.00
2023-01-20T23:48:47.572Z,100.00
2023-01-20T23:51:15.410Z,100.00
2023-01-20T23:53:43.481Z,100.00
2023-01-20T23:56:13.614Z,100.00
2023-01-20T23:58:41.516Z,100.00
